createdAt,value
2022-12-09T17:31:38.293Z,8.02
2022-12-09T17:36:41.508Z,6.97
2022-12-09T17:41:44.813Z,7.00
2022-12-09T17:46:50.625Z,7.20
2022-12-09T17:51:53.988Z,8.63
2022-12-09T17:56:57.123Z,7.38
2022-12-09T18:02:03.707Z,6.68
2022-12-09T18:07:06.929Z,10.30
2022-12-09T18:12:10.113Z,7.55
2022-12-09T18:17:14.679Z,6.57
2022-12-09T18:22:17.848Z,5.80
2022-12-09T18:27:21.003Z,7.13
2022-12-09T18:32:25.521Z,9.98
2022-12-09T18:37:28.963Z,10.75
2022-12-09T18:42:32.133Z,9.55
2022-12-09T18:47:36.723Z,10.38
2022-12-09T18:52:40.997Z,13.32
2022-12-09T18:57:44.095Z,13.50
2022-12-09T19:02:48.672Z,11.25
2022-12-09T19:07:51.819Z,17.95
2022-12-09T19:12:57.039Z,11.95
2022-12-09T19:18:01.935Z,11.50
2022-12-09T19:23:05.113Z,10.43
2022-12-09T19:28:09.238Z,11.85
2022-12-09T19:33:13.744Z,13.37
2022-12-09T19:38:16.868Z,12.00
2022-12-09T19:43:19.988Z,13.98
2022-12-09T19:48:24.539Z,13.10
2022-12-09T19:53:27.731Z,13.50
2022-12-09T19:58:31.777Z,15.32
2022-12-09T20:03:36.864Z,16.30
2022-12-09T20:08:40.593Z,19.17
2022-12-09T20:13:44.439Z,17.98
2022-12-09T20:18:49.905Z,15.52
2022-12-09T20:23:54.548Z,15.38
2022-12-09T20:28:59.250Z,15.07
2022-12-09T20:34:07.107Z,14.95
2022-12-09T20:39:15.228Z,14.75
2022-12-09T20:44:20.219Z,15.15
2022-12-09T20:54:30.322Z,16.70
2022-12-09T20:59:33.620Z,17.38
2022-12-09T21:04:38.169Z,19.00
2022-12-09T21:09:52.761Z,20.20
2022-12-09T21:15:00.787Z,16.70
2022-12-09T21:20:10.335Z,16.95
2022-12-09T21:25:14.143Z,17.27
2022-12-09T21:30:17.354Z,19.50
2022-12-09T21:35:21.892Z,16.95
2022-12-09T21:40:25.038Z,17.45
2022-12-09T21:45:28.220Z,22.15
2022-12-09T21:50:32.883Z,17.15
2022-12-09T21:55:38.371Z,13.35
2022-12-09T22:00:43.555Z,13.32
2022-12-09T22:05:58.167Z,15.10
2022-12-09T22:11:03.902Z,15.00
2022-12-09T22:16:08.354Z,17.00
2022-12-09T22:21:24.827Z,17.45
2022-12-09T22:26:30.271Z,21.40
2022-12-09T22:31:36.573Z,16.83
2022-12-09T22:36:41.767Z,20.60
2022-12-09T22:41:46.184Z,16.00
2022-12-09T22:46:51.425Z,18.40
2022-12-09T22:52:00.412Z,16.58
2022-12-09T22:57:03.913Z,19.75
2022-12-09T23:02:08.170Z,19.13
2022-12-09T23:07:19.235Z,20.67
2022-12-09T23:12:25.437Z,19.90
2022-12-09T23:17:29.972Z,18.48
2022-12-09T23:22:34.701Z,20.83
2022-12-09T23:27:40.897Z,23.55
2022-12-09T23:32:45.198Z,20.75
2022-12-09T23:37:53.293Z,24.90
2022-12-09T23:42:58.682Z,22.48
2022-12-09T23:48:47.801Z,32.28
2022-12-09T23:53:53.948Z,22.60
2022-12-09T23:58:58.281Z,19.98
